Time;durP1;ratioP1;P1;durP2;ratioP2;P2;SDS_P1;SDS_P2;PMS_P1;PMS_P2;Temp;Humidity;BMP_temperature;BMP_pressure;BME280_temperature;BME280_humidity;BME280_pressure;Samples;Min_cycle;Max_cycle;Signal;HPM_P1;HPM_P2
2022/06/13 00:00:35;;;;;;;;;;;;;;;23.49;40.73;100842.06;2100321;28;894;-53
2022/06/13 00:01:37;;;;;;;;;;;;;;;23.48;40.99;100838.50;2100270;28;775;-53
2022/06/13 00:02:37;;;;;;;;;;;;;;;23.48;41.82;100840.28;2100265;28;772;-53
2022/06/13 00:03:38;;;;;;;;;;;;;;;23.46;41.39;100842.19;2100185;28;1080;-53
2022/06/13 00:04:38;;;;;;;;;;;;;;;23.46;41.25;100837.69;2100231;28;1032;-53
2022/06/13 00:05:39;;;;;;;;;;;;;;;23.46;41.46;100836.78;2100356;28;779;-53
2022/06/13 00:06:39;;;;;;;;;;;;;;;23.45;41.06;100838.63;2100207;28;764;-53
2022/06/13 00:07:39;;;;;;;;;;;;;;;23.45;41.99;100830.50;2099446;28;1019;-53
2022/06/13 00:08:39;;;;;;;;;;;;;;;23.45;41.40;100837.72;2099892;28;1893;-53
2022/06/13 00:09:39;;;;;;;;;;;;;;;23.44;41.81;100831.47;2100221;28;1059;-53
2022/06/13 00:10:40;;;;;;;;;;;;;;;23.43;41.29;100837.81;2091275;28;659;-53
2022/06/13 00:11:40;;;;;;;;;;;;;;;23.43;42.29;100836.91;2091315;28;859;-52
2022/06/13 00:12:41;;;;;;;;;;;;;;;23.44;42.09;100833.28;2091292;28;827;-53
2022/06/13 00:13:44;;;;;;;;;;;;;;;23.40;41.99;100835.25;2091299;28;1035;-53
2022/06/13 00:14:44;;;;;;;;;;;;;;;23.39;41.82;100828.94;2100200;28;897;-53
2022/06/13 00:15:44;;;;;;;;;;;;;;;23.38;42.41;100832.59;2100136;28;1181;-53
2022/06/13 00:16:44;;;;;;;;;;;;;;;23.39;41.75;100836.19;2100155;28;839;-53
2022/06/13 00:17:44;;;;;;;;;;;;;;;23.38;42.35;100840.72;2100181;28;855;-53
2022/06/13 00:18:47;;;;;;;;;;;;;;;23.38;42.25;100840.72;2100113;28;842;-53
2022/06/13 00:19:47;;;;;;;;;;;;;;;23.37;42.38;100841.66;2100126;28;850;-53
2022/06/13 00:20:47;;;;;;;;;;;;;;;23.37;42.31;100836.25;2091168;28;1416;-53
2022/06/13 00:21:48;;;;;;;;;;;;;;;23.37;42.64;100844.34;2091222;28;969;-53
2022/06/13 00:22:48;;;;;;;;;;;;;;;23.36;41.93;100842.59;2100109;28;678;-53
2022/06/13 00:23:49;;;;;;;;;;;;;;;23.36;42.13;100841.75;2100090;28;899;-53
2022/06/13 00:24:49;;;;;;;;;;;;;;;23.35;42.30;100840.00;2100122;28;836;-53
2022/06/13 00:25:49;;;;;;;;;;;;;;;23.35;42.02;100837.28;2100083;28;1005;-53
2022/06/13 00:26:49;;;;;;;;;;;;;;;23.34;42.91;100840.94;2100104;28;850;-52
2022/06/13 00:27:50;;;;;;;;;;;;;;;23.33;42.05;100837.34;2099857;28;2024;-53
2022/06/13 00:28:50;;;;;;;;;;;;;;;23.33;42.91;100841.88;2100027;28;1031;-53
2022/06/13 00:29:51;;;;;;;;;;;;;;;23.33;42.38;100839.19;2100034;28;988;-53
2022/06/13 00:30:51;;;;;;;;;;;;;;;23.33;42.27;100841.88;2100063;28;1020;-53
2022/06/13 00:31:51;;;;;;;;;;;;;;;23.33;42.98;100836.47;2100045;28;1043;-53
2022/06/13 00:32:51;;;;;;;;;;;;;;;23.34;42.60;100840.94;2100023;28;783;-53
2022/06/13 00:33:52;;;;;;;;;;;;;;;23.32;42.91;100837.41;2100098;28;853;-52
2022/06/13 00:34:52;;;;;;;;;;;;;;;23.32;42.93;100840.13;2099985;28;752;-53
2022/06/13 00:35:52;;;;;;;;;;;;;;;23.31;42.53;100844.63;2099998;28;838;-53
2022/06/13 00:36:52;;;;;;;;;;;;;;;23.31;43.27;100839.22;2100007;28;952;-53
2022/06/13 00:37:52;;;;;;;;;;;;;;;23.31;43.08;100841.94;2099907;28;1274;-53
2022/06/13 00:38:54;;;;;;;;;;;;;;;23.30;43.32;100836.63;2099987;28;968;-53
2022/06/13 00:39:54;;;;;;;;;;;;;;;23.28;42.56;100833.97;2099982;28;803;-53
2022/06/13 00:40:54;;;;;;;;;;;;;;;23.28;43.02;100838.50;2099950;28;980;-53
2022/06/13 00:41:55;;;;;;;;;;;;;;;23.24;42.75;100835.94;2099957;28;906;-53
2022/06/13 00:42:55;;;;;;;;;;;;;;;23.23;43.11;100838.72;2099936;28;972;-53
2022/06/13 00:43:55;;;;;;;;;;;;;;;23.20;43.24;100830.72;2099954;28;840;-53
2022/06/13 00:45:04;;;;;;;;;;;;;;;23.18;43.63;100832.59;2099965;28;743;-53
2022/06/13 00:46:34;;;;;;;;;;;;;;;23.17;43.35;100830.84;2099919;28;1019;-53
2022/06/13 00:47:36;;;;;;;;;;;;;;;23.14;43.18;100829.16;2090578;28;1233;-53
2022/06/13 00:48:36;;;;;;;;;;;;;;;23.13;43.79;100827.38;2090549;28;1964;-53
2022/06/13 00:49:41;;;;;;;;;;;;;;;23.12;43.83;100828.34;2090674;28;1158;-53
2022/06/13 00:50:47;;;;;;;;;;;;;;;23.13;43.85;100829.22;2082277;28;1111;-53
2022/06/13 00:51:50;;;;;;;;;;;;;;;23.12;43.26;100835.59;2083049;28;1075;-53
2022/06/13 00:52:52;;;;;;;;;;;;;;;23.12;43.93;100828.34;2090562;28;1041;-53
2022/06/13 00:53:53;;;;;;;;;;;;;;;23.12;43.46;100827.47;2090674;28;858;-53
2022/06/13 00:54:54;;;;;;;;;;;;;;;23.12;43.45;100825.63;2090633;28;843;-53
2022/06/13 00:55:57;;;;;;;;;;;;;;;23.13;43.21;100822.00;2090637;28;906;-53
2022/06/13 00:56:57;;;;;;;;;;;;;;;23.11;43.34;100821.19;2090670;28;886;-53
2022/06/13 00:57:58;;;;;;;;;;;;;;;23.12;44.03;100827.47;2090647;28;968;-53
2022/06/13 00:59:00;;;;;;;;;;;;;;;23.12;44.10;100825.63;2090537;28;898;-53
2022/06/13 01:00:03;;;;;;;;;;;;;;;23.12;43.22;100827.47;2090669;28;772;-53
2022/06/13 01:01:04;;;;;;;;;;;;;;;23.11;43.47;100821.19;2090612;28;878;-53
2022/06/13 01:02:04;;;;;;;;;;;;;;;23.12;43.18;100822.06;2090592;28;1077;-53
2022/06/13 01:03:04;;;;;;;;;;;;;;;23.11;43.49;100818.47;2090617;28;985;-53
2022/06/13 01:04:05;;;;;;;;;;;;;;;23.12;43.81;100811.25;2090589;28;977;-53
2022/06/13 01:05:06;;;;;;;;;;;;;;;23.11;43.30;100821.19;2090481;28;1235;-53
2022/06/13 01:06:06;;;;;;;;;;;;;;;23.10;43.39;100811.31;2082225;28;946;-53
2022/06/13 01:07:08;;;;;;;;;;;;;;;23.11;43.79;100815.78;2082353;28;981;-53
2022/06/13 01:28:05;;;;;;;;;;;;;;;23.06;43.70;100807.88;2098880;28;1451;-54
2022/06/13 01:29:24;;;;;;;;;;;;;;;23.06;44.08;100807.00;2098657;28;897;-55
2022/06/13 01:30:27;;;;;;;;;;;;;;;23.05;44.08;100802.53;2098660;28;779;-55
2022/06/13 01:31:36;;;;;;;;;;;;;;;23.06;44.03;100801.59;2098595;28;1025;-55
2022/06/13 01:32:39;;;;;;;;;;;;;;;23.05;43.68;100800.72;2098628;28;806;-55
2022/06/13 01:33:45;;;;;;;;;;;;;;;23.05;43.59;100794.44;2098624;28;803;-55
2022/06/13 01:34:57;;;;;;;;;;;;;;;23.05;44.29;100802.53;2098586;28;952;-55
2022/06/13 01:36:11;;;;;;;;;;;;;;;23.04;43.51;100803.47;2098635;28;854;-55
2022/06/13 01:37:23;;;;;;;;;;;;;;;23.04;43.76;100808.88;2098404;28;965;-55
2022/06/13 01:38:32;;;;;;;;;;;;;;;23.03;43.84;100804.44;2098818;28;870;-55
2022/06/13 01:39:51;;;;;;;;;;;;;;;23.03;43.74;100805.31;2098823;28;981;-55
2022/06/13 01:41:00;;;;;;;;;;;;;;;23.03;44.34;100802.63;2098863;28;969;-55
2022/06/13 01:42:07;;;;;;;;;;;;;;;23.02;44.21;100805.38;2098800;28;977;-55
2022/06/13 01:43:11;;;;;;;;;;;;;;;23.03;43.73;100807.13;2098766;28;978;-55
2022/06/13 01:44:18;;;;;;;;;;;;;;;23.02;44.52;100799.97;2098782;28;870;-55
2022/06/13 01:45:21;;;;;;;;;;;;;;;23.02;44.26;100800.88;2098730;28;989;-55
2022/06/13 01:46:28;;;;;;;;;;;;;;;23.01;43.68;100799.09;2098786;28;869;-55
2022/06/13 01:47:43;;;;;;;;;;;;;;;23.02;44.45;100800.88;2098702;28;1914;-55
2022/06/13 01:48:56;;;;;;;;;;;;;;;23.01;44.46;100796.41;2098740;28;989;-55
2022/06/13 01:50:14;;;;;;;;;;;;;;;23.02;44.23;100805.38;2098768;28;747;-55
2022/06/13 01:51:14;;;;;;;;;;;;;;;23.02;43.55;100795.47;2098714;28;981;-55
2022/06/13 01:52:14;;;;;;;;;;;;;;;23.02;43.60;100805.38;2098694;28;961;-55
2022/06/13 01:53:27;;;;;;;;;;;;;;;23.02;43.62;100799.97;2098715;28;946;-55
2022/06/13 01:54:46;;;;;;;;;;;;;;;23.01;44.48;100796.41;2098794;28;795;-55
2022/06/13 01:55:52;;;;;;;;;;;;;;;23.02;44.12;100805.38;2098731;28;905;-55
2022/06/13 01:57:00;;;;;;;;;;;;;;;23.01;44.12;100799.09;2098619;28;1084;-55
2022/06/13 01:58:11;;;;;;;;;;;;;;;23.02;44.18;100802.66;2098717;28;870;-55
2022/06/13 01:59:11;;;;;;;;;;;;;;;23.01;43.96;100801.81;2098696;28;835;-55
2022/06/13 02:00:15;;;;;;;;;;;;;;;22.99;43.71;100798.28;2098646;28;1406;-55
2022/06/13 02:01:28;;;;;;;;;;;;;;;23.00;43.86;100799.16;2098606;28;819;-55
2022/06/13 02:02:34;;;;;;;;;;;;;;;23.00;43.78;100805.47;2098580;28;870;-55
2022/06/13 02:03:39;;;;;;;;;;;;;;;23.00;43.78;100791.94;2098597;28;911;-55
2022/06/13 02:04:43;;;;;;;;;;;;;;;23.00;44.20;100797.34;2098606;28;827;-55
2022/06/13 02:05:46;;;;;;;;;;;;;;;23.00;44.26;100797.34;2098546;28;1036;-55
2022/06/13 02:06:50;;;;;;;;;;;;;;;23.00;44.57;100802.75;2098523;28;1898;-55
2022/06/13 02:07:52;;;;;;;;;;;;;;;22.99;44.54;100797.41;2098526;28;1072;-55
2022/06/13 02:08:56;;;;;;;;;;;;;;;23.00;44.02;100799.16;2098585;28;870;-55
2022/06/13 02:09:59;;;;;;;;;;;;;;;23.00;43.84;100796.47;2098481;28;1940;-55
2022/06/13 02:11:04;;;;;;;;;;;;;;;22.99;44.32;100801.00;2098466;28;1755;-55
2022/06/13 02:12:04;;;;;;;;;;;;;;;22.99;43.76;100805.50;2098544;28;870;-55
2022/06/13 02:13:11;;;;;;;;;;;;;;;22.99;44.25;100803.69;2098554;28;850;-55
2022/06/13 02:14:18;;;;;;;;;;;;;;;22.99;44.08;100797.41;2098555;28;1102;-55
2022/06/13 02:15:22;;;;;;;;;;;;;;;22.99;44.00;100802.81;2098466;28;878;-55
2022/06/13 02:16:25;;;;;;;;;;;;;;;22.99;44.65;100802.81;2098442;28;989;-55
2022/06/13 02:17:28;;;;;;;;;;;;;;;22.99;44.06;100797.41;2098471;28;938;-55
2022/06/13 02:18:31;;;;;;;;;;;;;;;22.98;43.83;100798.34;2098490;28;1051;-54
2022/06/13 02:19:44;;;;;;;;;;;;;;;22.97;44.01;100800.19;2098434;28;924;-55
2022/06/13 02:20:46;;;;;;;;;;;;;;;22.97;44.71;100802.88;2098525;28;981;-55
2022/06/13 02:21:50;;;;;;;;;;;;;;;22.98;44.16;100798.34;2098460;28;1067;-55
2022/06/13 02:23:03;;;;;;;;;;;;;;;22.98;44.63;100809.16;2098412;28;1005;-55
2022/06/13 02:24:06;;;;;;;;;;;;;;;22.97;43.94;100802.00;2098398;28;972;-55
2022/06/13 02:25:21;;;;;;;;;;;;;;;22.97;44.70;100802.00;2098418;28;874;-55
2022/06/13 02:26:24;;;;;;;;;;;;;;;22.97;44.16;100796.59;2098393;28;1254;-55
2022/06/13 02:27:27;;;;;;;;;;;;;;;22.97;44.57;100800.19;2103164;28;1889;-55
2022/06/13 02:28:38;;;;;;;;;;;;;;;22.97;44.70;100797.50;2106841;28;931;-55
2022/06/13 02:29:42;;;;;;;;;;;;;;;22.96;44.23;100787.63;2106793;28;771;-55
2022/06/13 02:30:46;;;;;;;;;;;;;;;22.97;44.21;100792.09;2106799;28;829;-55
2022/06/13 02:31:53;;;;;;;;;;;;;;;22.95;44.66;100800.28;2106710;28;874;-55
2022/06/13 02:32:56;;;;;;;;;;;;;;;22.97;44.73;100799.28;2106747;28;861;-55
2022/06/13 02:34:09;;;;;;;;;;;;;;;22.95;44.65;100800.28;2106734;28;988;-55
2022/06/13 02:35:15;;;;;;;;;;;;;;;22.97;44.35;100799.28;2106715;28;803;-55
2022/06/13 02:36:20;;;;;;;;;;;;;;;22.97;44.13;100799.28;2106663;28;1024;-55
2022/06/13 02:37:24;;;;;;;;;;;;;;;22.95;44.27;100789.47;2106616;28;1318;-55
2022/06/13 02:38:27;;;;;;;;;;;;;;;22.95;44.08;100797.56;2105974;28;767;-55
2022/06/13 02:39:31;;;;;;;;;;;;;;;22.94;44.39;100794.91;2100754;28;845;-55
2022/06/13 02:40:44;;;;;;;;;;;;;;;22.95;44.77;100796.69;2101140;28;894;-55
2022/06/13 02:41:47;;;;;;;;;;;;;;;22.94;44.53;100803.03;2101179;28;818;-55
2022/06/13 02:43:04;;;;;;;;;;;;;;;22.94;43.93;100803.91;2101071;28;874;-55
2022/06/13 02:44:30;;;;;;;;;;;;;;;22.93;44.96;100796.75;2101125;28;905;-55
2022/06/13 02:45:33;;;;;;;;;;;;;;;22.94;44.11;100797.63;2075322;28;1078;-55
2022/06/13 02:46:39;;;;;;;;;;;;;;;22.94;44.63;100803.03;2075474;28;997;-55
2022/06/13 02:47:50;;;;;;;;;;;;;;;22.93;43.94;100799.47;2075313;28;1967;-55
2022/06/13 02:48:53;;;;;;;;;;;;;;;22.93;44.59;100802.16;2075486;28;894;-55
2022/06/13 02:50:00;;;;;;;;;;;;;;;22.92;44.77;100800.41;2075414;28;774;-55
2022/06/13 02:51:19;;;;;;;;;;;;;;;22.93;44.30;100799.47;2075421;28;1017;-55
2022/06/13 02:52:23;;;;;;;;;;;;;;;22.93;44.64;100796.75;2075436;28;891;-55
2022/06/13 02:53:32;;;;;;;;;;;;;;;22.94;44.26;100797.63;2075394;28;1021;-55
2022/06/13 02:54:47;;;;;;;;;;;;;;;22.93;44.83;100802.16;2075381;28;1399;-55
2022/06/13 02:55:59;;;;;;;;;;;;;;;22.93;44.01;100798.56;2075467;28;973;-55
2022/06/13 02:58:27;;;;;;;;;;;;;;;22.92;44.62;100799.50;2075415;28;722;-55
2022/06/13 02:59:38;;;;;;;;;;;;;;;22.92;44.47;100800.41;2075361;28;1010;-55
2022/06/13 03:00:45;;;;;;;;;;;;;;;22.92;44.73;100746.38;2075389;28;929;-55
2022/06/13 03:01:47;;;;;;;;;;;;;;;22.93;44.55;100741.84;2075404;28;776;-55
2022/06/13 03:03:06;;;;;;;;;;;;;;;22.93;44.83;100741.84;2075348;28;986;-55
2022/06/13 03:04:11;;;;;;;;;;;;;;;22.91;44.14;100750.03;2075260;28;926;-55
2022/06/13 03:05:14;;;;;;;;;;;;;;;22.93;43.88;100733.75;2075336;28;1005;-55
2022/06/13 03:06:24;;;;;;;;;;;;;;;22.92;44.57;100735.56;2075311;28;830;-55
2022/06/13 03:07:29;;;;;;;;;;;;;;;22.94;44.74;100786.81;2075214;28;1951;-55
2022/06/13 03:08:54;;;;;;;;;;;;;;;22.94;44.07;100825.53;2075328;28;1001;-55
2022/06/13 03:09:58;;;;;;;;;;;;;;;22.93;44.79;100810.25;2075285;28;1128;-55
2022/06/13 03:11:12;;;;;;;;;;;;;;;22.93;44.26;100804.84;2075257;28;981;-55
2022/06/13 03:12:19;;;;;;;;;;;;;;;22.92;44.10;100808.50;2075405;28;783;-55
2022/06/13 03:13:26;;;;;;;;;;;;;;;22.92;44.73;100799.50;2075234;28;1830;-55
2022/06/13 03:14:49;;;;;;;;;;;;;;;22.91;44.48;100803.16;2075270;28;1057;-55
2022/06/13 03:15:54;;;;;;;;;;;;;;;22.90;44.69;100794.19;2043077;29;1056;-55
2022/06/13 03:17:05;;;;;;;;;;;;;;;22.90;44.02;100796.88;2043021;29;1040;-55
2022/06/13 03:18:08;;;;;;;;;;;;;;;22.90;44.18;100796.00;2043189;29;1131;-55
2022/06/13 03:19:15;;;;;;;;;;;;;;;22.90;44.27;100796.88;2043165;29;884;-55
2022/06/13 03:20:22;;;;;;;;;;;;;;;22.88;44.61;100804.19;2043279;29;798;-55
2022/06/13 03:21:36;;;;;;;;;;;;;;;22.88;44.96;100787.09;2043089;29;908;-55
2022/06/13 03:22:41;;;;;;;;;;;;;;;22.88;44.22;100782.56;2045036;28;967;-55
2022/06/13 03:23:46;;;;;;;;;;;;;;;22.90;44.28;100779.78;2067033;28;1061;-55
2022/06/13 03:24:56;;;;;;;;;;;;;;;22.89;44.59;100776.22;2067082;28;1173;-55
2022/06/13 03:26:02;;;;;;;;;;;;;;;22.89;44.78;100784.34;2067116;28;787;-55
2022/06/13 03:27:10;;;;;;;;;;;;;;;22.89;44.05;100784.34;2066901;28;2024;-55
2022/06/13 03:28:16;;;;;;;;;;;;;;;22.89;45.03;100780.72;2066984;28;938;-55
2022/06/13 03:29:16;;;;;;;;;;;;;;;22.89;44.83;100784.34;2067078;28;819;-55
2022/06/13 03:30:19;;;;;;;;;;;;;;;22.89;44.12;100784.34;2067012;28;855;-55
2022/06/13 03:31:26;;;;;;;;;;;;;;;22.88;44.43;100763.66;2067024;28;924;-55
2022/06/13 03:32:31;;;;;;;;;;;;;;;22.89;44.30;100778.03;2067014;28;1061;-55
2022/06/13 03:33:40;;;;;;;;;;;;;;;22.89;44.70;100778.03;2067006;28;1065;-55
2022/06/13 03:34:43;;;;;;;;;;;;;;;22.88;44.29;100776.28;2066976;28;1039;-55
2022/06/13 03:35:45;;;;;;;;;;;;;;;22.87;44.26;100770.00;2066928;28;1732;-55
2022/06/13 03:37:04;;;;;;;;;;;;;;;22.88;44.69;100774.47;2066974;28;877;-55
2022/06/13 03:38:05;;;;;;;;;;;;;;;22.88;44.20;100765.47;2066911;28;1010;-55
2022/06/13 03:39:05;;;;;;;;;;;;;;;22.86;44.53;100768.25;2066927;28;1052;-55
2022/06/13 03:40:20;;;;;;;;;;;;;;;22.87;45.00;100771.81;2066955;28;946;-55
2022/06/13 03:41:22;;;;;;;;;;;;;;;22.87;45.08;100763.72;2066936;28;1006;-55
2022/06/13 03:42:22;;;;;;;;;;;;;;;22.88;44.28;100770.88;2067089;28;830;-55
2022/06/13 03:43:33;;;;;;;;;;;;;;;22.88;44.60;100770.88;2066942;28;1026;-55
2022/06/13 03:44:37;;;;;;;;;;;;;;;22.87;44.15;100763.72;2066925;28;954;-55
2022/06/13 03:45:40;;;;;;;;;;;;;;;22.87;44.08;100766.41;2066919;28;811;-55
2022/06/13 03:46:43;;;;;;;;;;;;;;;22.86;45.12;100765.56;2066844;28;1073;-55
2022/06/13 03:47:47;;;;;;;;;;;;;;;22.87;44.75;100764.63;2066830;28;1906;-55
2022/06/13 03:49:00;;;;;;;;;;;;;;;22.86;45.08;100762.84;2066902;28;993;-55
2022/06/13 03:50:00;;;;;;;;;;;;;;;22.86;44.55;100768.25;2066754;28;990;-55
2022/06/13 03:51:04;;;;;;;;;;;;;;;22.87;44.90;100769.13;2066057;28;966;-55
2022/06/13 03:52:07;;;;;;;;;;;;;;;22.87;45.08;100771.81;2066832;28;1068;-55
2022/06/13 03:53:16;;;;;;;;;;;;;;;22.85;44.88;100763.81;2070175;28;1052;-55
2022/06/13 03:54:20;;;;;;;;;;;;;;;22.87;45.11;100766.41;2100505;28;1059;-55
2022/06/13 03:55:28;;;;;;;;;;;;;;;22.87;44.53;100761.03;2100472;28;1270;-55
2022/06/13 03:56:31;;;;;;;;;;;;;;;22.85;44.78;100761.09;2100555;28;882;-55
2022/06/13 03:57:31;;;;;;;;;;;;;;;22.86;44.75;100767.38;2100480;28;1036;-55
2022/06/13 03:58:40;;;;;;;;;;;;;;;22.85;44.44;100766.50;2100465;28;1012;-55
2022/06/13 03:59:44;;;;;;;;;;;;;;;22.84;44.88;100762.06;2100506;28;885;-55
2022/06/13 04:00:48;;;;;;;;;;;;;;;22.86;45.20;100751.16;2100457;28;850;-55
2022/06/13 04:01:57;;;;;;;;;;;;;;;22.86;44.61;100772.78;2100480;28;996;-55
2022/06/13 04:02:58;;;;;;;;;;;;;;;24.15;42.26;100726.25;2100475;28;1072;-55
2022/06/13 04:04:00;;;;;;;;;;;;;;;24.90;40.18;100716.06;2100420;28;1060;-53
2022/06/13 04:05:00;;;;;;;;;;;;;;;25.30;38.98;100757.28;2100390;28;898;-54
2022/06/13 04:06:02;;;;;;;;;;;;;;;25.60;37.96;100758.41;2100403;28;1059;-53
2022/06/13 04:07:03;;;;;;;;;;;;;;;25.89;37.37;100764.91;2100310;28;1897;-53
2022/06/13 04:08:04;;;;;;;;;;;;;;;26.19;36.60;100752.38;2100426;28;811;-53
2022/06/13 04:09:09;;;;;;;;;;;;;;;26.45;36.33;100758.97;2100401;28;795;-53
2022/06/13 04:10:12;;;;;;;;;;;;;;;26.65;35.71;100767.75;2100370;28;912;-54
2022/06/13 04:11:31;;;;;;;;;;;;;;;26.76;35.40;100773.41;2100378;28;1000;-54
2022/06/13 04:12:50;;;;;;;;;;;;;;;26.99;35.23;100778.44;2100371;28;886;-56
2022/06/13 04:14:05;;;;;;;;;;;;;;;27.20;35.17;100776.22;2100377;28;960;-55
2022/06/13 04:15:23;;;;;;;;;;;;;;;27.47;34.09;100753.69;2100408;28;965;-55
2022/06/13 04:16:27;;;;;;;;;;;;;;;27.70;34.32;100754.06;2100363;28;921;-55
2022/06/13 04:17:36;;;;;;;;;;;;;;;27.85;33.71;100746.75;2100389;28;819;-55
2022/06/13 04:19:00;;;;;;;;;;;;;;;28.09;33.35;100741.53;2100396;28;746;-55
2022/06/13 04:20:18;;;;;;;;;;;;;;;28.17;33.00;100746.47;2100346;28;1060;-55
2022/06/13 04:21:25;;;;;;;;;;;;;;;28.47;32.72;100739.94;2100309;28;991;-55
2022/06/13 04:22:28;;;;;;;;;;;;;;;28.43;32.56;100746.56;2100332;28;779;-55
2022/06/13 04:23:33;;;;;;;;;;;;;;;28.55;32.26;100738.41;2100266;28;974;-55
2022/06/13 04:24:46;;;;;;;;;;;;;;;28.65;32.53;100737.78;2100330;28;838;-55
2022/06/13 04:26:05;;;;;;;;;;;;;;;28.91;31.47;100743.25;2100264;28;783;-55
2022/06/13 04:27:05;;;;;;;;;;;;;;;29.21;31.72;100742.06;2100074;28;1890;-55
2022/06/13 04:28:10;;;;;;;;;;;;;;;29.60;30.74;100742.88;2100222;28;972;-55
2022/06/13 04:29:23;;;;;;;;;;;;;;;29.90;30.44;100738.88;2100244;28;1005;-55
2022/06/13 04:30:25;;;;;;;;;;;;;;;30.21;29.53;100733.84;2100250;28;818;-55
2022/06/13 04:31:28;;;;;;;;;;;;;;;30.57;29.23;100739.31;2100247;28;814;-55
2022/06/13 04:32:33;;;;;;;;;;;;;;;30.74;29.13;100744.38;2100207;28;1000;-55
2022/06/13 04:33:45;;;;;;;;;;;;;;;30.88;28.48;100739.69;2091318;28;954;-55
2022/06/13 04:34:46;;;;;;;;;;;;;;;31.06;28.15;100738.19;2093016;28;1009;-54
2022/06/13 04:35:47;;;;;;;;;;;;;;;31.05;28.03;100732.84;2100203;28;984;-55
2022/06/13 04:36:49;;;;;;;;;;;;;;;31.14;28.71;100731.22;2100164;28;779;-55
2022/06/13 04:37:50;;;;;;;;;;;;;;;31.15;28.31;100733.84;2100144;28;1203;-54
2022/06/13 04:38:52;;;;;;;;;;;;;;;31.23;28.00;100733.25;2100183;28;969;-54
2022/06/13 04:39:58;;;;;;;;;;;;;;;31.40;27.44;100731.88;2100150;28;992;-55
2022/06/13 04:41:00;;;;;;;;;;;;;;;31.53;27.70;100730.88;2100166;28;850;-55
2022/06/13 04:42:02;;;;;;;;;;;;;;;31.71;26.96;100732.09;2100141;28;968;-55
2022/06/13 04:43:05;;;;;;;;;;;;;;;31.85;26.73;100735.56;2100150;28;830;-55
2022/06/13 04:44:09;;;;;;;;;;;;;;;31.59;27.10;100738.59;2100182;28;977;-54
2022/06/13 04:45:24;;;;;;;;;;;;;;;31.49;27.26;100733.00;2100059;28;936;-55
2022/06/13 04:46:25;;;;;;;;;;;;;;;31.73;26.53;100741.09;2100191;28;984;-55
2022/06/13 04:47:26;;;;;;;;;;;;;;;31.92;26.38;100745.00;2100035;28;1918;-55
2022/06/13 04:48:27;;;;;;;;;;;;;;;31.94;26.64;100746.63;2100128;28;882;-55
2022/06/13 04:49:41;;;;;;;;;;;;;;;31.90;26.45;100747.00;2100125;28;783;-55
2022/06/13 04:50:44;;;;;;;;;;;;;;;32.00;26.65;100745.22;2099997;28;2012;-55
2022/06/13 04:51:44;;;;;;;;;;;;;;;32.16;26.12;100743.94;2100101;28;787;-55
2022/06/13 04:52:47;;;;;;;;;;;;;;;32.17;25.95;100737.47;2100106;28;794;-54
2022/06/13 04:53:53;;;;;;;;;;;;;;;32.15;26.05;100740.31;2100066;28;913;-55
2022/06/13 04:54:59;;;;;;;;;;;;;;;32.09;26.60;100741.72;2100096;28;866;-55
2022/06/13 04:55:59;;;;;;;;;;;;;;;32.12;26.27;100737.84;2100089;28;870;-55
2022/06/13 04:57:00;;;;;;;;;;;;;;;32.00;26.29;100747.97;2100037;28;846;-55
2022/06/13 04:58:00;;;;;;;;;;;;;;;32.13;26.23;100744.19;2100071;28;807;-55
2022/06/13 04:59:01;;;;;;;;;;;;;;;32.18;25.98;100744.69;2100105;28;839;-55
2022/06/13 05:00:05;;;;;;;;;;;;;;;32.44;25.52;100747.06;2100032;28;985;-54
2022/06/13 05:01:24;;;;;;;;;;;;;;;32.44;25.43;100745.22;2100025;28;878;-55
2022/06/13 05:02:38;;;;;;;;;;;;;;;32.36;25.92;100745.91;2099807;28;898;-55
2022/06/13 05:03:42;;;;;;;;;;;;;;;32.64;25.57;100734.41;2100058;28;783;-55
2022/06/13 05:04:43;;;;;;;;;;;;;;;32.59;25.22;100740.28;2100024;28;787;-55
2022/06/13 05:05:46;;;;;;;;;;;;;;;32.40;25.64;100743.75;2100095;28;795;-55
2022/06/13 05:06:50;;;;;;;;;;;;;;;32.58;25.54;100748.66;2100010;28;882;-55
2022/06/13 05:07:50;;;;;;;;;;;;;;;32.52;25.12;100741.81;2099912;28;1882;-55
2022/06/13 05:09:04;;;;;;;;;;;;;;;32.60;25.40;100743.91;2099986;28;989;-55
2022/06/13 05:10:05;;;;;;;;;;;;;;;32.74;25.06;100739.94;2092626;28;2994;-55
2022/06/13 05:11:16;;;;;;;;;;;;;;;32.70;25.34;100733.00;2093916;28;1864;-55
2022/06/13 05:12:23;;;;;;;;;;;;;;;32.38;25.41;100741.13;2094662;28;2047;-55
2022/06/13 05:13:24;;;;;;;;;;;;;;;32.57;25.54;100746.91;2093890;28;1722;-55
2022/06/13 05:14:34;;;;;;;;;;;;;;;32.74;25.05;100748.16;2086140;28;1782;-55
2022/06/13 05:15:34;;;;;;;;;;;;;;;32.91;24.73;100739.38;2085307;28;1748;-55
2022/06/13 05:16:42;;;;;;;;;;;;;;;32.86;24.71;100736.16;2091629;28;1912;-55
2022/06/13 05:17:43;;;;;;;;;;;;;;;32.93;25.03;100737.38;2095624;28;1587;-55
2022/06/13 05:18:49;;;;;;;;;;;;;;;32.79;24.82;100733.03;2102883;28;1268;-55
2022/06/13 05:19:52;;;;;;;;;;;;;;;32.91;25.30;100730.25;2095474;28;1774;-55
2022/06/13 05:20:52;;;;;;;;;;;;;;;32.72;24.96;100731.00;2092937;28;1842;-55
2022/06/13 05:22:05;;;;;;;;;;;;;;;32.62;24.73;100726.31;2093720;28;1941;-55
2022/06/13 05:23:05;;;;;;;;;;;;;;;32.79;25.02;100732.19;2095351;28;1855;-55
2022/06/13 05:24:11;;;;;;;;;;;;;;;32.65;25.42;100728.78;2091627;28;1405;-55
2022/06/13 05:25:32;;;;;;;;;;;;;;;32.65;25.06;100734.25;2093630;28;1792;-55
2022/06/13 05:26:33;;;;;;;;;;;;;;;33.01;24.60;100730.31;2082779;28;899;-55
2022/06/13 05:27:33;;;;;;;;;;;;;;;33.07;24.44;100732.50;2089631;28;2039;-55
2022/06/13 05:28:34;;;;;;;;;;;;;;;32.72;24.91;100729.09;2092179;28;891;-55
2022/06/13 05:29:35;;;;;;;;;;;;;;;32.92;24.95;100740.22;2091607;28;847;-55
2022/06/13 05:30:35;;;;;;;;;;;;;;;33.20;24.19;100735.91;2091623;28;834;-55
2022/06/13 05:31:36;;;;;;;;;;;;;;;33.07;24.47;100732.50;2089616;28;1642;-55
2022/06/13 05:32:36;;;;;;;;;;;;;;;33.04;24.76;100732.78;2091023;28;906;-55
2022/06/13 05:33:38;;;;;;;;;;;;;;;32.77;24.86;100729.56;2099903;28;965;-56
2022/06/13 05:34:40;;;;;;;;;;;;;;;32.78;24.85;100731.31;2099848;28;830;-55
2022/06/13 05:35:43;;;;;;;;;;;;;;;32.99;24.55;100737.78;2098849;28;1810;-56
2022/06/13 05:36:43;;;;;;;;;;;;;;;33.04;24.66;100730.03;2094804;28;1716;-56
2022/06/13 05:37:43;;;;;;;;;;;;;;;33.08;24.59;100742.47;2095174;28;1939;-55
2022/06/13 05:38:46;;;;;;;;;;;;;;;33.10;24.32;100730.38;2082788;28;1732;-55
2022/06/13 05:39:46;;;;;;;;;;;;;;;33.24;24.56;100723.63;2091298;28;896;-55
2022/06/13 05:40:46;;;;;;;;;;;;;;;33.31;24.37;100723.09;2099882;28;1043;-55
2022/06/13 05:41:46;;;;;;;;;;;;;;;33.16;24.56;100726.19;2099906;28;779;-55
2022/06/13 05:42:47;;;;;;;;;;;;;;;33.16;24.31;100728.94;2099679;28;1566;-55
2022/06/13 05:43:47;;;;;;;;;;;;;;;33.30;24.30;100737.81;2091532;28;989;-55
2022/06/13 05:44:47;;;;;;;;;;;;;;;33.11;24.20;100732.09;2091541;28;861;-55
2022/06/13 05:45:47;;;;;;;;;;;;;;;33.03;24.27;100729.19;2096750;28;1114;-55
2022/06/13 05:46:47;;;;;;;;;;;;;;;33.21;24.32;100728.53;2099799;28;909;-55
2022/06/13 05:47:48;;;;;;;;;;;;;;;33.10;24.09;100734.97;2099761;28;1968;-55
2022/06/13 05:48:49;;;;;;;;;;;;;;;33.27;24.12;100738.94;2099810;28;981;-55
2022/06/13 05:49:49;;;;;;;;;;;;;;;33.23;24.06;100732.88;2099862;28;1000;-55
2022/06/13 05:50:49;;;;;;;;;;;;;;;33.29;24.26;100736.06;2099796;28;886;-55
2022/06/13 05:51:49;;;;;;;;;;;;;;;33.16;24.25;100745.41;2099833;28;1004;-55
2022/06/13 05:52:50;;;;;;;;;;;;;;;33.21;24.28;100743.13;2099840;28;977;-55
2022/06/13 05:53:50;;;;;;;;;;;;;;;33.14;24.34;100738.34;2099811;28;909;-55
2022/06/13 05:54:50;;;;;;;;;;;;;;;33.24;24.13;100739.25;2103117;28;1492;-55
2022/06/13 05:55:52;;;;;;;;;;;;;;;33.31;24.39;100739.56;2100502;28;1904;-55
2022/06/13 05:56:53;;;;;;;;;;;;;;;32.95;24.67;100742.69;2099793;28;981;-55
2022/06/13 05:57:53;;;;;;;;;;;;;;;32.96;24.54;100736.22;2103030;28;1538;-55
2022/06/13 05:58:54;;;;;;;;;;;;;;;33.31;24.26;100736.81;2099761;28;964;-55
2022/06/13 05:59:54;;;;;;;;;;;;;;;33.43;23.96;100741.22;2099809;28;874;-55
2022/06/13 06:00:57;;;;;;;;;;;;;;;33.39;23.84;100742.50;2093355;28;2040;-55
2022/06/13 06:01:57;;;;;;;;;;;;;;;33.36;23.92;100746.34;2091524;28;822;-55